Hotevilla, Arizona
Current Conditions -  °F | °C
As of 2:56 AM on Saturday 29 Nov 2014 (Local Time) from KINW Reporting Station
Clear Clear  
Wind Chill: 29°   Ceiling: Unl
Heat Index: 29°   Visibility: 10mi
Dew Point: 11°   Wind: 0mph
Humidity: 47%   Direction: NA
Pressure: 30.05"   Gusts: NA
Location:  35.93°N, 110.67°W
Report Text: KINW 290956Z AUTO 00000KT 10SM CLR M02/M12 A3005 RMK AO2 SLP149 T10171117
Loading
Personal Weather Stations






























Interactive Weather Map New forecast layout! Learn more

10-Day Weather Forecast

Advertisements
Track Severe Weather on mobile